Bibo Regio — HE6415 — position and weather

sailwx.info

Track history (hours):
 
Tides and Currents Weather Stations Pressure Air Temp Water Temp Dewpoint Dewpoint Depression Visibility Wind Speed Wind Dir Waves Ship Positions

Bibo Regio

Last reported at 2015-Jul-29 12:28 UTC. Time now 2015-Jul-29 13:29 UTC.
Position N 47°35' E 007°35'.

Length 32 m.

Type: Ship. MMSI: 269056415.

Date/timePositionNaut miles runAvg speedWind from/ knotsBaromVisibWave heightAir tempDewpointWater temp
2015-Jul-29 12:28N 47°35' E 007°35'0 0.0
2015-Jul-29 11:33N 47°35' E 007°35'4 3.6
2015-Jul-29 10:33N 47°33' E 007°39'0 0.1
2015-Jul-29 09:32N 47°33' E 007°39'2 2.3
2015-Jul-29 08:31N 47°33' E 007°36'2 1.0
2015-Jul-29 06:32N 47°35' E 007°35'0 0.1
2015-Jul-29 05:26N 47°35' E 007°35'0 0.0
2015-Jul-29 04:25N 47°35' E 007°35'0 0.0
2015-Jul-29 03:33N 47°35' E 007°35'0 0.0
2015-Jul-29 02:33N 47°35' E 007°35'0 0.0
2015-Jul-29 01:33N 47°35' E 007°35'0 0.0
2015-Jul-29 00:33N 47°35' E 007°35'0 0.0
2015-Jul-28 23:33N 47°35' E 007°35'0 0.0
2015-Jul-28 22:33N 47°35' E 007°35'0 0.0
2015-Jul-28 21:33N 47°35' E 007°35'0 0.0
2015-Jul-28 20:33N 47°35' E 007°35'0 0.0
2015-Jul-28 19:30N 47°35' E 007°35'0 0.0
2015-Jul-28 18:32N 47°35' E 007°35'0 0.0
2015-Jul-28 17:33N 47°35' E 007°35'0 0.0
2015-Jul-28 16:34N 47°35' E 007°35'0 0.0
2015-Jul-28 15:34N 47°35' E 007°35'0 0.0
2015-Jul-28 14:32N 47°35' E 007°35'0 0.0
2015-Jul-28 13:33N 47°35' E 007°35'0 0.4
2015-Jul-28 12:33N 47°35' E 007°35'1 0.9
2015-Jul-28 11:33N 47°36' E 007°36'1 0.0
2015-Jul-27 09:10N 47°37' E 007°35'1 1.6
2015-Jul-27 08:33N 47°36' E 007°36'2 1.7
2015-Jul-27 07:30N 47°34' E 007°35'1 1.4
2015-Jul-27 06:33N 47°35' E 007°35'0 0.0
2015-Jul-27 05:33N 47°35' E 007°35'0 0.0
2015-Jul-27 04:33N 47°35' E 007°35'0 0.0
2015-Jul-27 03:33N 47°35' E 007°35'0 0.0
2015-Jul-27 02:33N 47°35' E 007°35'0 0.0
2015-Jul-27 01:33N 47°35' E 007°35'0 0.0
2015-Jul-27 00:34N 47°35' E 007°35'0 0.0
2015-Jul-26 23:33N 47°35' E 007°35'0 0.0
2015-Jul-26 22:33N 47°35' E 007°35'0 0.0
2015-Jul-26 21:33N 47°35' E 007°35'0 0.0
2015-Jul-26 20:33N 47°35' E 007°35'0 0.0
2015-Jul-26 19:33N 47°35' E 007°35'0 0.0
2015-Jul-26 18:33N 47°35' E 007°35'0 0.0
2015-Jul-26 17:33N 47°35' E 007°35'0 0.0
2015-Jul-26 16:33N 47°35' E 007°35'0 0.0
2015-Jul-26 15:33N 47°35' E 007°35'0 0.0
2015-Jul-26 14:33N 47°35' E 007°35'0 0.0
2015-Jul-26 13:33N 47°35' E 007°35'0 0.0
2015-Jul-26 12:33N 47°35' E 007°35'0 0.0
2015-Jul-26 11:33N 47°35' E 007°35'0 0.0
2015-Jul-26 10:32N 47°35' E 007°35'0 0.0
2015-Jul-26 09:33N 47°35' E 007°35'0 0.0
2015-Jul-26 08:34N 47°35' E 007°35'0 0.0
2015-Jul-26 07:33N 47°35' E 007°35'0 0.0
2015-Jul-26 06:33N 47°35' E 007°35'0 0.0
2015-Jul-26 05:33N 47°35' E 007°35'0 0.0
2015-Jul-26 04:34N 47°35' E 007°35'0 0.0
2015-Jul-26 03:33N 47°35' E 007°35'0 0.0
2015-Jul-26 02:33N 47°35' E 007°35'0 0.0
2015-Jul-26 01:33N 47°35' E 007°35'0 0.0
2015-Jul-26 00:33N 47°35' E 007°35'0 0.0
2015-Jul-25 23:33N 47°35' E 007°35'0 0.0
2015-Jul-25 22:33N 47°35' E 007°35'0 0.0
2015-Jul-25 21:33N 47°35' E 007°35'0 0.0
2015-Jul-25 20:33N 47°35' E 007°35'0 0.0
2015-Jul-25 19:33N 47°35' E 007°35'0 0.0
2015-Jul-25 18:33N 47°35' E 007°35'0 0.0
2015-Jul-25 17:33N 47°35' E 007°35'0 0.0
2015-Jul-25 16:33N 47°35' E 007°35'0 0.0
2015-Jul-25 15:33N 47°35' E 007°35'0 0.0
2015-Jul-25 14:33N 47°35' E 007°35'0 0.0
2015-Jul-25 13:33N 47°35' E 007°35'0 0.0
2015-Jul-25 12:33N 47°35' E 007°35'0 0.0
2015-Jul-25 11:33N 47°35' E 007°35'0 0.0
2015-Jul-25 10:33N 47°35' E 007°35'0 0.0
2015-Jul-25 09:33N 47°35' E 007°35'0 0.0
2015-Jul-25 08:33N 47°35' E 007°35'0 0.0
2015-Jul-25 07:33N 47°35' E 007°35'0 0.0
2015-Jul-25 06:33N 47°35' E 007°35'0 0.0
2015-Jul-25 05:33N 47°35' E 007°35'0 0.0
2015-Jul-25 04:33N 47°35' E 007°35'0 0.0
2015-Jul-25 03:33N 47°35' E 007°35'0 0.0
2015-Jul-25 02:33N 47°35' E 007°35'0 0.0
2015-Jul-25 01:33N 47°35' E 007°35'0 0.0
2015-Jul-25 00:34N 47°35' E 007°35'0 0.0
2015-Jul-24 23:33N 47°35' E 007°35'0 0.0
2015-Jul-24 22:33N 47°35' E 007°35'0 0.0
2015-Jul-24 21:33N 47°35' E 007°35'0 0.0
2015-Jul-24 20:33N 47°35' E 007°35'0 0.0
2015-Jul-24 19:29N 47°35' E 007°35'0 0.0
2015-Jul-24 18:33N 47°35' E 007°35'0 0.0
2015-Jul-24 17:33N 47°35' E 007°35'0 0.0
2015-Jul-24 16:32N 47°35' E 007°35'0 0.0
2015-Jul-24 15:34N 47°35' E 007°35'0 0.0
2015-Jul-24 14:32N 47°35' E 007°35'0 0.0
2015-Jul-24 13:34N 47°35' E 007°35'0 0.0
2015-Jul-24 12:33N 47°35' E 007°35'0 0.0
2015-Jul-24 11:33N 47°35' E 007°35'0 0.0
2015-Jul-24 10:33N 47°35' E 007°35'0 0.2
2015-Jul-24 09:24N 47°35' E 007°35'0 0.1
2015-Jul-24 08:32N 47°35' E 007°35'0 0.3
2015-Jul-24 07:33N 47°35' E 007°35'0 0.0
2015-Jul-24 06:33N 47°35' E 007°35'0 0.0
2015-Jul-24 05:33N 47°35' E 007°35'0 0.0
2015-Jul-24 04:33N 47°35' E 007°35'0 0.0
2015-Jul-24 03:33N 47°35' E 007°35'0 0.0
2015-Jul-24 02:32N 47°35' E 007°35'0 0.0
2015-Jul-24 01:32N 47°35' E 007°35'0 0.0
2015-Jul-24 00:33N 47°35' E 007°35'0 0.0
2015-Jul-23 23:33N 47°35' E 007°35'0 0.0
2015-Jul-23 22:34N 47°35' E 007°35'0 0.0
2015-Jul-23 21:29N 47°35' E 007°35'0 0.0
2015-Jul-23 20:31N 47°35' E 007°35'0 0.0
2015-Jul-23 19:33N 47°35' E 007°35'0 0.0
2015-Jul-23 18:33N 47°35' E 007°35'0 0.0
2015-Jul-23 17:33N 47°35' E 007°35'0 0.0
2015-Jul-23 16:33N 47°35' E 007°35'0 0.0
2015-Jul-23 15:33N 47°35' E 007°35'0 0.0
2015-Jul-23 14:33N 47°35' E 007°35'0 0.2
2015-Jul-23 13:33N 47°35' E 007°35'0 0.2
2015-Jul-23 12:33N 47°35' E 007°35'0 0.0
2015-Jul-23 11:33N 47°35' E 007°35'1 1.1
2015-Jul-23 10:33N 47°34' E 007°35'1 1.0
2015-Jul-23 09:33N 47°35' E 007°35'0 0.1
2015-Jul-23 08:33N 47°35' E 007°35'0 0.5
2015-Jul-23 07:31N 47°35' E 007°35'0 0.0
2015-Jul-23 06:33N 47°35' E 007°35'0 0.4
2015-Jul-23 05:33N 47°35' E 007°35'0 0.2
2015-Jul-23 04:33N 47°35' E 007°35'0 0.0
2015-Jul-23 03:32N 47°35' E 007°35'0 0.0
2015-Jul-23 02:31N 47°35' E 007°35'0 0.0
2015-Jul-23 01:33N 47°35' E 007°35'0 0.0
2015-Jul-23 00:33N 47°35' E 007°35'0 0.0
2015-Jul-22 23:33N 47°35' E 007°35'0 0.0
2015-Jul-22 22:32N 47°35' E 007°35'0 0.0
2015-Jul-22 21:33N 47°35' E 007°35'0 0.0
2015-Jul-22 20:33N 47°35' E 007°35'0 0.0
2015-Jul-22 19:33N 47°35' E 007°35'0 0.0
2015-Jul-22 18:33N 47°35' E 007°35'0 0.0
2015-Jul-22 17:33N 47°35' E 007°35'0 0.0
2015-Jul-22 16:33N 47°35' E 007°35'0 0.0
2015-Jul-22 15:33N 47°35' E 007°35'0 0.0
2015-Jul-22 14:33N 47°35' E 007°35'0 0.0
2015-Jul-22 13:33N 47°35' E 007°35'0 0.0
2015-Jul-22 12:18N 47°35' E 007°35'0 0.0
2015-Jul-22 11:32N 47°35' E 007°35'0 0.0
2015-Jul-22 10:33N 47°35' E 007°35'1 1.3
2015-Jul-22 09:33N 47°34' E 007°35'1 1.0
2015-Jul-22 08:13N 47°35' E 007°35'0 0.0
2015-Jul-22 07:33N 47°35' E 007°35'0 0.0
2015-Jul-22 06:33N 47°35' E 007°35'0 0.1
2015-Jul-22 05:33N 47°35' E 007°35'0 0.0
2015-Jul-22 04:33N 47°35' E 007°35'0 0.0
2015-Jul-21 16:32N 47°35' E 007°35'0 0.0
2015-Jul-21 15:19N 47°35' E 007°35'0 0.0
2015-Jul-21 14:33N 47°35' E 007°35'0 0.0
2015-Jul-21 13:33N 47°35' E 007°35'0 0.0
2015-Jul-21 12:33N 47°35' E 007°35'0 0.0
2015-Jul-21 11:33N 47°35' E 007°35'0 0.0
2015-Jul-21 10:33N 47°35' E 007°35'0 0.0
2015-Jul-21 09:33N 47°35' E 007°35'0 0.0
2015-Jul-21 08:33N 47°35' E 007°35'0 0.1
2015-Jul-21 07:33N 47°35' E 007°36'0 0.1
2015-Jul-21 06:33N 47°35' E 007°35'0 0.0
2015-Jul-21 05:33N 47°35' E 007°35'0 0.0
2015-Jul-21 04:33N 47°35' E 007°35'0 0.0
2015-Jul-21 03:33N 47°35' E 007°35'0 0.0
2015-Jul-21 02:33N 47°35' E 007°35'0 0.0
2015-Jul-21 01:33N 47°35' E 007°35'0 0.0
2015-Jul-21 00:32N 47°35' E 007°35'0 0.0
2015-Jul-20 23:17N 47°35' E 007°35'0 0.0
2015-Jul-20 22:27N 47°35' E 007°35'0 0.0
2015-Jul-20 21:33N 47°35' E 007°35'0 0.0
2015-Jul-20 20:30N 47°35' E 007°35'0 0.0
2015-Jul-20 19:33N 47°35' E 007°35'0 0.0
2015-Jul-20 18:33N 47°35' E 007°35'0 0.0
2015-Jul-20 17:33N 47°35' E 007°35'0 0.0
2015-Jul-20 16:33N 47°35' E 007°35'0 0.0
2015-Jul-20 15:33N 47°35' E 007°35'0 0.0
2015-Jul-20 14:33N 47°35' E 007°35'0 0.0
2015-Jul-20 13:31N 47°35' E 007°35'0 0.0
2015-Jul-20 12:32N 47°35' E 007°35'0 0.0
2015-Jul-20 11:33N 47°35' E 007°35'0 0.0
2015-Jul-20 09:33N 47°35' E 007°35'0 0.0
2015-Jul-20 08:33N 47°35' E 007°35'0 0.0
2015-Jul-20 07:27N 47°35' E 007°35'0 0.0
2015-Jul-20 06:32N 47°35' E 007°35'0 0.0
2015-Jul-20 05:33N 47°35' E 007°35'0 0.0
2015-Jul-20 04:32N 47°35' E 007°35'0 0.0
2015-Jul-20 03:31N 47°35' E 007°35'0 0.0
2015-Jul-20 02:26N 47°35' E 007°35'0 0.0
2015-Jul-20 01:18N 47°35' E 007°35'0 0.0
2015-Jul-20 00:33N 47°35' E 007°35'0 0.0
2015-Jul-19 23:33N 47°35' E 007°35'0 0.0
2015-Jul-19 22:33N 47°35' E 007°35'0 0.0
2015-Jul-19 21:33N 47°35' E 007°35'0 0.0
2015-Jul-19 20:32N 47°35' E 007°35'0 0.0
2015-Jul-19 19:32N 47°35' E 007°35'0 0.0
2015-Jul-19 18:33N 47°35' E 007°35'0 0.0
2015-Jul-19 17:33N 47°35' E 007°35'0 0.0
2015-Jul-19 16:33N 47°35' E 007°35'0 0.0
2015-Jul-19 15:33N 47°35' E 007°35'0 0.0
2015-Jul-19 14:33N 47°35' E 007°35'0 0.0
2015-Jul-19 13:33N 47°35' E 007°35'0 0.0
2015-Jul-19 12:33N 47°35' E 007°35'  
Track history (hours):
 
Tides and Currents Weather Stations Pressure Air Temp Water Temp Dewpoint Dewpoint Depression Visibility Wind Speed Wind Dir Waves Ship Positions

Bibo Regio

Last reported at 2015-Jul-29 12:28 UTC. Time now 2015-Jul-29 13:29 UTC.
Position N 47°35' E 007°35'.

Length 32 m.

Type: Ship. MMSI: 269056415.

Date/timePositionNaut miles runAvg speedWind from/ knotsBaromVisibWave heightAir tempDewpointWater temp
2015-Jul-29 12:28N 47°35' E 007°35'0 0.0
2015-Jul-29 11:33N 47°35' E 007°35'4 3.6
2015-Jul-29 10:33N 47°33' E 007°39'0 0.1
2015-Jul-29 09:32N 47°33' E 007°39'2 2.3
2015-Jul-29 08:31N 47°33' E 007°36'2 1.0
2015-Jul-29 06:32N 47°35' E 007°35'0 0.1
2015-Jul-29 05:26N 47°35' E 007°35'0 0.0
2015-Jul-29 04:25N 47°35' E 007°35'0 0.0
2015-Jul-29 03:33N 47°35' E 007°35'0 0.0
2015-Jul-29 02:33N 47°35' E 007°35'0 0.0
2015-Jul-29 01:33N 47°35' E 007°35'0 0.0
2015-Jul-29 00:33N 47°35' E 007°35'0 0.0
2015-Jul-28 23:33N 47°35' E 007°35'0 0.0
2015-Jul-28 22:33N 47°35' E 007°35'0 0.0
2015-Jul-28 21:33N 47°35' E 007°35'0 0.0
2015-Jul-28 20:33N 47°35' E 007°35'0 0.0
2015-Jul-28 19:30N 47°35' E 007°35'0 0.0
2015-Jul-28 18:32N 47°35' E 007°35'0 0.0
2015-Jul-28 17:33N 47°35' E 007°35'0 0.0
2015-Jul-28 16:34N 47°35' E 007°35'0 0.0
2015-Jul-28 15:34N 47°35' E 007°35'0 0.0
2015-Jul-28 14:32N 47°35' E 007°35'0 0.0
2015-Jul-28 13:33N 47°35' E 007°35'0 0.4
2015-Jul-28 12:33N 47°35' E 007°35'1 0.9
2015-Jul-28 11:33N 47°36' E 007°36'1 0.0
2015-Jul-27 09:10N 47°37' E 007°35'1 1.6
2015-Jul-27 08:33N 47°36' E 007°36'2 1.7
2015-Jul-27 07:30N 47°34' E 007°35'1 1.4
2015-Jul-27 06:33N 47°35' E 007°35'0 0.0
2015-Jul-27 05:33N 47°35' E 007°35'0 0.0
2015-Jul-27 04:33N 47°35' E 007°35'0 0.0
2015-Jul-27 03:33N 47°35' E 007°35'0 0.0
2015-Jul-27 02:33N 47°35' E 007°35'0 0.0
2015-Jul-27 01:33N 47°35' E 007°35'0 0.0
2015-Jul-27 00:34N 47°35' E 007°35'0 0.0
2015-Jul-26 23:33N 47°35' E 007°35'0 0.0
2015-Jul-26 22:33N 47°35' E 007°35'0 0.0
2015-Jul-26 21:33N 47°35' E 007°35'0 0.0
2015-Jul-26 20:33N 47°35' E 007°35'0 0.0
2015-Jul-26 19:33N 47°35' E 007°35'0 0.0
2015-Jul-26 18:33N 47°35' E 007°35'0 0.0
2015-Jul-26 17:33N 47°35' E 007°35'0 0.0
2015-Jul-26 16:33N 47°35' E 007°35'0 0.0
2015-Jul-26 15:33N 47°35' E 007°35'0 0.0
2015-Jul-26 14:33N 47°35' E 007°35'0 0.0
2015-Jul-26 13:33N 47°35' E 007°35'0 0.0
2015-Jul-26 12:33N 47°35' E 007°35'0 0.0
2015-Jul-26 11:33N 47°35' E 007°35'0 0.0
2015-Jul-26 10:32N 47°35' E 007°35'0 0.0
2015-Jul-26 09:33N 47°35' E 007°35'0 0.0
2015-Jul-26 08:34N 47°35' E 007°35'0 0.0
2015-Jul-26 07:33N 47°35' E 007°35'0 0.0
2015-Jul-26 06:33N 47°35' E 007°35'0 0.0
2015-Jul-26 05:33N 47°35' E 007°35'0 0.0
2015-Jul-26 04:34N 47°35' E 007°35'0 0.0
2015-Jul-26 03:33N 47°35' E 007°35'0 0.0
2015-Jul-26 02:33N 47°35' E 007°35'0 0.0
2015-Jul-26 01:33N 47°35' E 007°35'0 0.0
2015-Jul-26 00:33N 47°35' E 007°35'0 0.0
2015-Jul-25 23:33N 47°35' E 007°35'0 0.0
2015-Jul-25 22:33N 47°35' E 007°35'0 0.0
2015-Jul-25 21:33N 47°35' E 007°35'0 0.0
2015-Jul-25 20:33N 47°35' E 007°35'0 0.0
2015-Jul-25 19:33N 47°35' E 007°35'0 0.0
2015-Jul-25 18:33N 47°35' E 007°35'0 0.0
2015-Jul-25 17:33N 47°35' E 007°35'0 0.0
2015-Jul-25 16:33N 47°35' E 007°35'0 0.0
2015-Jul-25 15:33N 47°35' E 007°35'0 0.0
2015-Jul-25 14:33N 47°35' E 007°35'0 0.0
2015-Jul-25 13:33N 47°35' E 007°35'0 0.0
2015-Jul-25 12:33N 47°35' E 007°35'0 0.0
2015-Jul-25 11:33N 47°35' E 007°35'0 0.0
2015-Jul-25 10:33N 47°35' E 007°35'0 0.0
2015-Jul-25 09:33N 47°35' E 007°35'0 0.0
2015-Jul-25 08:33N 47°35' E 007°35'0 0.0
2015-Jul-25 07:33N 47°35' E 007°35'0 0.0
2015-Jul-25 06:33N 47°35' E 007°35'0 0.0
2015-Jul-25 05:33N 47°35' E 007°35'0 0.0
2015-Jul-25 04:33N 47°35' E 007°35'0 0.0
2015-Jul-25 03:33N 47°35' E 007°35'0 0.0
2015-Jul-25 02:33N 47°35' E 007°35'0 0.0
2015-Jul-25 01:33N 47°35' E 007°35'0 0.0
2015-Jul-25 00:34N 47°35' E 007°35'0 0.0
2015-Jul-24 23:33N 47°35' E 007°35'0 0.0
2015-Jul-24 22:33N 47°35' E 007°35'0 0.0
2015-Jul-24 21:33N 47°35' E 007°35'0 0.0
2015-Jul-24 20:33N 47°35' E 007°35'0 0.0
2015-Jul-24 19:29N 47°35' E 007°35'0 0.0
2015-Jul-24 18:33N 47°35' E 007°35'0 0.0
2015-Jul-24 17:33N 47°35' E 007°35'0 0.0
2015-Jul-24 16:32N 47°35' E 007°35'0 0.0
2015-Jul-24 15:34N 47°35' E 007°35'0 0.0
2015-Jul-24 14:32N 47°35' E 007°35'0 0.0
2015-Jul-24 13:34N 47°35' E 007°35'0 0.0
2015-Jul-24 12:33N 47°35' E 007°35'0 0.0
2015-Jul-24 11:33N 47°35' E 007°35'0 0.0
2015-Jul-24 10:33N 47°35' E 007°35'0 0.2
2015-Jul-24 09:24N 47°35' E 007°35'0 0.1
2015-Jul-24 08:32N 47°35' E 007°35'0 0.3
2015-Jul-24 07:33N 47°35' E 007°35'0 0.0
2015-Jul-24 06:33N 47°35' E 007°35'0 0.0
2015-Jul-24 05:33N 47°35' E 007°35'0 0.0
2015-Jul-24 04:33N 47°35' E 007°35'0 0.0
2015-Jul-24 03:33N 47°35' E 007°35'0 0.0
2015-Jul-24 02:32N 47°35' E 007°35'0 0.0
2015-Jul-24 01:32N 47°35' E 007°35'0 0.0
2015-Jul-24 00:33N 47°35' E 007°35'0 0.0
2015-Jul-23 23:33N 47°35' E 007°35'0 0.0
2015-Jul-23 22:34N 47°35' E 007°35'0 0.0
2015-Jul-23 21:29N 47°35' E 007°35'0 0.0
2015-Jul-23 20:31N 47°35' E 007°35'0 0.0
2015-Jul-23 19:33N 47°35' E 007°35'0 0.0
2015-Jul-23 18:33N 47°35' E 007°35'0 0.0
2015-Jul-23 17:33N 47°35' E 007°35'0 0.0
2015-Jul-23 16:33N 47°35' E 007°35'0 0.0
2015-Jul-23 15:33N 47°35' E 007°35'0 0.0
2015-Jul-23 14:33N 47°35' E 007°35'0 0.2
2015-Jul-23 13:33N 47°35' E 007°35'0 0.2
2015-Jul-23 12:33N 47°35' E 007°35'0 0.0
2015-Jul-23 11:33N 47°35' E 007°35'1 1.1
2015-Jul-23 10:33N 47°34' E 007°35'1 1.0
2015-Jul-23 09:33N 47°35' E 007°35'0 0.1
2015-Jul-23 08:33N 47°35' E 007°35'0 0.5
2015-Jul-23 07:31N 47°35' E 007°35'0 0.0
2015-Jul-23 06:33N 47°35' E 007°35'0 0.4
2015-Jul-23 05:33N 47°35' E 007°35'0 0.2
2015-Jul-23 04:33N 47°35' E 007°35'0 0.0
2015-Jul-23 03:32N 47°35' E 007°35'0 0.0
2015-Jul-23 02:31N 47°35' E 007°35'0 0.0
2015-Jul-23 01:33N 47°35' E 007°35'0 0.0
2015-Jul-23 00:33N 47°35' E 007°35'0 0.0
2015-Jul-22 23:33N 47°35' E 007°35'0 0.0
2015-Jul-22 22:32N 47°35' E 007°35'0 0.0
2015-Jul-22 21:33N 47°35' E 007°35'0 0.0
2015-Jul-22 20:33N 47°35' E 007°35'0 0.0
2015-Jul-22 19:33N 47°35' E 007°35'0 0.0
2015-Jul-22 18:33N 47°35' E 007°35'0 0.0
2015-Jul-22 17:33N 47°35' E 007°35'0 0.0
2015-Jul-22 16:33N 47°35' E 007°35'0 0.0
2015-Jul-22 15:33N 47°35' E 007°35'0 0.0
2015-Jul-22 14:33N 47°35' E 007°35'0 0.0
2015-Jul-22 13:33N 47°35' E 007°35'0 0.0
2015-Jul-22 12:18N 47°35' E 007°35'0 0.0
2015-Jul-22 11:32N 47°35' E 007°35'0 0.0
2015-Jul-22 10:33N 47°35' E 007°35'1 1.3
2015-Jul-22 09:33N 47°34' E 007°35'1 1.0
2015-Jul-22 08:13N 47°35' E 007°35'0 0.0
2015-Jul-22 07:33N 47°35' E 007°35'0 0.0
2015-Jul-22 06:33N 47°35' E 007°35'0 0.1
2015-Jul-22 05:33N 47°35' E 007°35'0 0.0
2015-Jul-22 04:33N 47°35' E 007°35'0 0.0
2015-Jul-21 16:32N 47°35' E 007°35'0 0.0
2015-Jul-21 15:19N 47°35' E 007°35'0 0.0
2015-Jul-21 14:33N 47°35' E 007°35'0 0.0
2015-Jul-21 13:33N 47°35' E 007°35'0 0.0
2015-Jul-21 12:33N 47°35' E 007°35'0 0.0
2015-Jul-21 11:33N 47°35' E 007°35'0 0.0
2015-Jul-21 10:33N 47°35' E 007°35'0 0.0
2015-Jul-21 09:33N 47°35' E 007°35'0 0.0
2015-Jul-21 08:33N 47°35' E 007°35'0 0.1
2015-Jul-21 07:33N 47°35' E 007°36'0 0.1
2015-Jul-21 06:33N 47°35' E 007°35'0 0.0
2015-Jul-21 05:33N 47°35' E 007°35'0 0.0
2015-Jul-21 04:33N 47°35' E 007°35'0 0.0
2015-Jul-21 03:33N 47°35' E 007°35'0 0.0
2015-Jul-21 02:33N 47°35' E 007°35'0 0.0
2015-Jul-21 01:33N 47°35' E 007°35'0 0.0
2015-Jul-21 00:32N 47°35' E 007°35'0 0.0
2015-Jul-20 23:17N 47°35' E 007°35'0 0.0
2015-Jul-20 22:27N 47°35' E 007°35'0 0.0
2015-Jul-20 21:33N 47°35' E 007°35'0 0.0
2015-Jul-20 20:30N 47°35' E 007°35'0 0.0
2015-Jul-20 19:33N 47°35' E 007°35'0 0.0
2015-Jul-20 18:33N 47°35' E 007°35'0 0.0
2015-Jul-20 17:33N 47°35' E 007°35'0 0.0
2015-Jul-20 16:33N 47°35' E 007°35'0 0.0
2015-Jul-20 15:33N 47°35' E 007°35'0 0.0
2015-Jul-20 14:33N 47°35' E 007°35'0 0.0
2015-Jul-20 13:31N 47°35' E 007°35'0 0.0
2015-Jul-20 12:32N 47°35' E 007°35'0 0.0
2015-Jul-20 11:33N 47°35' E 007°35'0 0.0
2015-Jul-20 09:33N 47°35' E 007°35'0 0.0
2015-Jul-20 08:33N 47°35' E 007°35'0 0.0
2015-Jul-20 07:27N 47°35' E 007°35'0 0.0
2015-Jul-20 06:32N 47°35' E 007°35'0 0.0
2015-Jul-20 05:33N 47°35' E 007°35'0 0.0
2015-Jul-20 04:32N 47°35' E 007°35'0 0.0
2015-Jul-20 03:31N 47°35' E 007°35'0 0.0
2015-Jul-20 02:26N 47°35' E 007°35'0 0.0
2015-Jul-20 01:18N 47°35' E 007°35'0 0.0
2015-Jul-20 00:33N 47°35' E 007°35'0 0.0
2015-Jul-19 23:33N 47°35' E 007°35'0 0.0
2015-Jul-19 22:33N 47°35' E 007°35'0 0.0
2015-Jul-19 21:33N 47°35' E 007°35'0 0.0
2015-Jul-19 20:32N 47°35' E 007°35'0 0.0
2015-Jul-19 19:32N 47°35' E 007°35'0 0.0
2015-Jul-19 18:33N 47°35' E 007°35'0 0.0
2015-Jul-19 17:33N 47°35' E 007°35'0 0.0
2015-Jul-19 16:33N 47°35' E 007°35'0 0.0
2015-Jul-19 15:33N 47°35' E 007°35'0 0.0
2015-Jul-19 14:33N 47°35' E 007°35'0 0.0
2015-Jul-19 13:33N 47°35' E 007°35'0 0.0
2015-Jul-19 12:33N 47°35' E 007°35'  

Dump ship's entire track history